Solana — WCY5602 — position and weather

sailwx.info

Track history (hours):
 
Tides and Currents Weather Stations Pressure Air Temp Water Temp Dewpoint Dewpoint Depression Visibility Wind Speed Wind Dir Waves Ship Positions

Solana

Owner: TAURUS MARINE, SAN FRANCISCO, CA. More information available from US FCC via Universal Licensing System and Coast Guard Vessel Documentation Center.

Last reported at 2014-Oct-21 12:33 UTC. Time now 2014-Oct-21 13:36 UTC.
Position N 47°32' W 122°25'.

Type: Towing. MMSI: 366969740.

Date/timePositionNaut miles runAvg speedWind from/ knotsBaromVisibWave heightAir tempDewpointWater temp
2014-Oct-21 12:33N 47°32' W 122°25'10 9.9
2014-Oct-21 11:33N 47°23' W 122°22'1 9.8
2014-Oct-21 11:25N 47°21' W 122°23'5 5.6
2014-Oct-21 10:27N 47°16' W 122°24'3 3.3
2014-Oct-21 09:33N 47°18' W 122°27'2 7.6
2014-Oct-21 09:20N 47°19' W 122°29'5 6.6
2014-Oct-21 08:33N 47°24' W 122°32'4 7.4
2014-Oct-21 08:00N 47°28' W 122°31'3 7.4
2014-Oct-21 07:33N 47°31' W 122°29'0 7.3
2014-Oct-21 07:30N 47°31' W 122°29'7 7.5
2014-Oct-21 06:33N 47°38' W 122°28'0 7.1
2014-Oct-21 06:30N 47°39' W 122°28'3 5.5
2014-Oct-21 05:55N 47°40' W 122°24'0 0.9
2014-Oct-21 05:33N 47°40' W 122°23'5 5.1
2014-Oct-21 04:33N 47°39' W 122°16'0 2.6
2014-Oct-21 04:25N 47°39' W 122°17'3 3.1
2014-Oct-21 03:33N 47°39' W 122°20'0 0.0
2014-Oct-21 03:29N 47°39' W 122°20'0 0.0
2014-Oct-21 02:33N 47°39' W 122°20'0 0.0
2014-Oct-21 02:29N 47°39' W 122°20'0 0.0
2014-Oct-21 01:33N 47°39' W 122°20'0 0.1
2014-Oct-21 01:30N 47°39' W 122°20'0 0.0
2014-Oct-21 00:33N 47°39' W 122°20'0 0.0
2014-Oct-21 00:30N 47°39' W 122°20'0 0.0
2014-Oct-20 23:32N 47°39' W 122°20'0 0.0
2014-Oct-20 23:29N 47°39' W 122°20'0 0.0
2014-Oct-20 22:07N 47°39' W 122°20'0 0.0
2014-Oct-20 22:05N 47°39' W 122°20'0 0.0
2014-Oct-20 21:15N 47°39' W 122°20'0 0.0
2014-Oct-20 21:05N 47°39' W 122°20'0 0.0
2014-Oct-20 20:29N 47°39' W 122°20'0 0.0
2014-Oct-20 19:49N 47°39' W 122°20'0 0.0
2014-Oct-20 19:33N 47°39' W 122°20'0 0.1
2014-Oct-20 19:29N 47°39' W 122°20'0 0.0
2014-Oct-20 18:33N 47°39' W 122°20'0 0.0
2014-Oct-20 18:29N 47°39' W 122°20'0 0.0
2014-Oct-20 17:33N 47°39' W 122°20'0 0.0
2014-Oct-20 16:33N 47°39' W 122°20'0 0.0
2014-Oct-20 15:33N 47°39' W 122°20'0 0.0
2014-Oct-20 14:33N 47°39' W 122°20'0 0.0
2014-Oct-20 13:33N 47°39' W 122°20'0 0.0
2014-Oct-20 12:33N 47°39' W 122°20'0 0.0
2014-Oct-20 11:33N 47°39' W 122°20'0 0.0
2014-Oct-20 10:33N 47°39' W 122°20'0 0.0
2014-Oct-20 09:33N 47°39' W 122°20'0 0.0
2014-Oct-20 08:33N 47°39' W 122°20'0 0.0
2014-Oct-20 07:28N 47°39' W 122°20'0 0.0
2014-Oct-20 06:43N 47°39' W 122°20'0 0.0
2014-Oct-20 06:28N 47°39' W 122°20'0 0.0
2014-Oct-20 06:28N 47°39' W 122°20'0 0.0
2014-Oct-20 05:58N 47°39' W 122°20'0 0.0
2014-Oct-20 05:33N 47°39' W 122°20'0 0.0
2014-Oct-20 04:33N 47°39' W 122°20'0 0.0
2014-Oct-20 04:33N 47°39' W 122°20'0 0.0
2014-Oct-20 03:33N 47°39' W 122°20'0 0.0
2014-Oct-20 03:33N 47°39' W 122°20'0 0.0
2014-Oct-20 02:33N 47°39' W 122°20'0 0.0
2014-Oct-20 02:33N 47°39' W 122°20'0 0.0
2014-Oct-20 01:33N 47°39' W 122°20'0 0.0
2014-Oct-20 01:33N 47°39' W 122°20'0 0.0
2014-Oct-20 00:33N 47°39' W 122°20'0 0.0
2014-Oct-20 00:33N 47°39' W 122°20'0 0.0
2014-Oct-19 23:33N 47°39' W 122°20'0 0.0
2014-Oct-19 23:33N 47°39' W 122°20'0 0.0
2014-Oct-19 22:33N 47°39' W 122°20'0 0.0
2014-Oct-19 22:33N 47°39' W 122°20'0 0.0
2014-Oct-19 21:34N 47°39' W 122°20'0 0.0
2014-Oct-19 21:33N 47°39' W 122°20'0 0.0
2014-Oct-19 20:33N 47°39' W 122°20'0 0.0
2014-Oct-19 20:32N 47°39' W 122°20'0 0.0
2014-Oct-19 19:33N 47°39' W 122°20'0 0.0
2014-Oct-19 19:30N 47°39' W 122°20'0 0.0
2014-Oct-19 18:33N 47°39' W 122°20'0 0.0
2014-Oct-19 18:29N 47°39' W 122°20'0 0.0
2014-Oct-19 17:18N 47°39' W 122°20'0 0.0
2014-Oct-19 17:18N 47°39' W 122°20'0 0.0
2014-Oct-19 16:31N 47°39' W 122°20'0 0.0
2014-Oct-19 16:31N 47°39' W 122°20'0 0.0
2014-Oct-19 15:33N 47°39' W 122°20'0 0.0
2014-Oct-19 15:31N 47°39' W 122°20'0 0.0
2014-Oct-19 14:33N 47°39' W 122°20'0 0.0
2014-Oct-19 14:31N 47°39' W 122°20'0 0.0
2014-Oct-19 13:33N 47°39' W 122°20'0 0.2
2014-Oct-19 13:31N 47°39' W 122°20'0 0.0
2014-Oct-19 12:33N 47°39' W 122°20'0 0.0
2014-Oct-19 12:31N 47°39' W 122°20'0 0.0
2014-Oct-19 11:33N 47°39' W 122°20'0 0.0
2014-Oct-19 11:31N 47°39' W 122°20'0 0.0
2014-Oct-19 10:33N 47°39' W 122°20'0 0.0
2014-Oct-19 10:31N 47°39' W 122°20'0 0.0
2014-Oct-19 09:33N 47°39' W 122°20'0 0.0
2014-Oct-19 09:31N 47°39' W 122°20'0 0.0
2014-Oct-19 08:33N 47°39' W 122°20'0 0.0
2014-Oct-19 08:31N 47°39' W 122°20'0 0.0
2014-Oct-19 07:33N 47°39' W 122°20'0 0.0
2014-Oct-19 07:31N 47°39' W 122°20'0 0.0
2014-Oct-19 06:33N 47°39' W 122°20'0 0.0
2014-Oct-19 06:30N 47°39' W 122°20'0 0.0
2014-Oct-19 06:00N 47°39' W 122°20'0 0.0
2014-Oct-19 05:33N 47°39' W 122°20'0 0.0
2014-Oct-19 04:33N 47°39' W 122°20'0 0.0
2014-Oct-19 04:30N 47°39' W 122°20'0 0.0
2014-Oct-19 03:33N 47°39' W 122°20'0 0.0
2014-Oct-19 03:30N 47°39' W 122°20'0 0.0
2014-Oct-19 02:33N 47°39' W 122°20'0 0.1
2014-Oct-19 02:30N 47°39' W 122°20'0 0.0
2014-Oct-19 01:33N 47°39' W 122°20'0 0.0
2014-Oct-19 01:30N 47°39' W 122°20'0 0.0
2014-Oct-19 00:33N 47°39' W 122°20'0 0.0
2014-Oct-19 00:29N 47°39' W 122°20'0 0.0
2014-Oct-18 23:33N 47°39' W 122°20'0 0.0
2014-Oct-18 23:30N 47°39' W 122°20'0 0.0
2014-Oct-18 22:33N 47°39' W 122°20'0 0.0
2014-Oct-18 22:29N 47°39' W 122°20'0 0.0
2014-Oct-18 21:33N 47°39' W 122°20'0 0.1
2014-Oct-18 21:29N 47°39' W 122°20'0 0.0
2014-Oct-18 20:33N 47°39' W 122°20'0 0.0
2014-Oct-18 20:29N 47°39' W 122°20'0 0.0
2014-Oct-18 19:33N 47°39' W 122°20'0 0.0
2014-Oct-18 19:29N 47°39' W 122°20'0 0.0
2014-Oct-18 18:33N 47°39' W 122°20'0 0.0
2014-Oct-18 18:28N 47°39' W 122°20'2 1.6
2014-Oct-18 17:25N 47°39' W 122°18'1 5.9
2014-Oct-18 17:19N 47°39' W 122°17'1 1.4
2014-Oct-18 16:33N 47°38' W 122°15'0 2.1
2014-Oct-18 16:19N 47°38' W 122°15'5 6.5
2014-Oct-18 15:33N 47°43' W 122°16'2 4.4
2014-Oct-18 15:03N 47°45' W 122°15'2 4.7
2014-Oct-18 14:33N 47°43' W 122°16'1 9.4
2014-Oct-18 14:29N 47°42' W 122°16'5 5.1
2014-Oct-18 13:33N 47°39' W 122°20'0 0.0
2014-Oct-18 13:33N 47°39' W 122°20'0 0.3
2014-Oct-18 12:34N 47°39' W 122°20'0 0.0
2014-Oct-18 12:34N 47°39' W 122°20'0 0.0
2014-Oct-18 11:34N 47°39' W 122°20'0 0.0
2014-Oct-18 11:33N 47°39' W 122°20'0 0.0
2014-Oct-18 10:23N 47°39' W 122°20'0 0.0
2014-Oct-18 10:22N 47°39' W 122°20'0 0.0
2014-Oct-18 09:33N 47°39' W 122°20'0 0.0
2014-Oct-18 09:33N 47°39' W 122°20'0 0.0
2014-Oct-18 08:33N 47°39' W 122°20'0 0.0
2014-Oct-18 08:32N 47°39' W 122°20'0 0.0
2014-Oct-18 07:33N 47°39' W 122°20'0 0.0
2014-Oct-18 07:32N 47°39' W 122°20'0 0.0
2014-Oct-18 06:33N 47°39' W 122°20'0 0.0
2014-Oct-18 06:32N 47°39' W 122°20'0 0.0
2014-Oct-18 05:57N 47°39' W 122°20'0 0.0
2014-Oct-18 05:34N 47°39' W 122°20'0 0.0
2014-Oct-18 04:34N 47°39' W 122°20'0 0.0
2014-Oct-18 04:32N 47°39' W 122°20'0 0.0
2014-Oct-18 03:34N 47°39' W 122°20'0 0.0
2014-Oct-18 03:32N 47°39' W 122°20'0 0.0
2014-Oct-18 02:33N 47°39' W 122°20'0 0.0
2014-Oct-18 02:32N 47°39' W 122°20'0 0.0
2014-Oct-18 01:33N 47°39' W 122°20'0 0.0
2014-Oct-18 01:32N 47°39' W 122°20'0 0.0
2014-Oct-18 00:33N 47°39' W 122°20'0 0.0
2014-Oct-18 00:32N 47°39' W 122°20'0 0.0
2014-Oct-17 23:32N 47°39' W 122°20'0 0.0
2014-Oct-17 23:32N 47°39' W 122°20'0 0.0
2014-Oct-17 22:33N 47°39' W 122°20'0 0.0
2014-Oct-17 22:31N 47°39' W 122°20'0 0.0
2014-Oct-17 21:33N 47°39' W 122°20'0 0.0
2014-Oct-17 21:31N 47°39' W 122°20'0 0.0
2014-Oct-17 20:33N 47°39' W 122°20'0 0.0
2014-Oct-17 20:31N 47°39' W 122°20'0 0.0
2014-Oct-17 19:33N 47°39' W 122°20'0 0.2
2014-Oct-17 19:31N 47°39' W 122°20'0 0.0
2014-Oct-17 18:34N 47°39' W 122°20'0 0.0
2014-Oct-17 18:31N 47°39' W 122°20'0 0.0
2014-Oct-17 17:34N 47°39' W 122°20'0 0.0
2014-Oct-17 17:31N 47°39' W 122°20'0 0.0
2014-Oct-17 16:34N 47°39' W 122°20'0 0.0
2014-Oct-17 16:31N 47°39' W 122°20'0 0.0
2014-Oct-17 15:33N 47°39' W 122°20'0 0.2
2014-Oct-17 15:31N 47°39' W 122°20'0 0.0
2014-Oct-17 14:33N 47°39' W 122°20'0 0.0
2014-Oct-17 14:31N 47°39' W 122°20'0 0.0
2014-Oct-17 13:33N 47°39' W 122°20'0 0.0
2014-Oct-17 13:31N 47°39' W 122°20'0 0.0
2014-Oct-17 12:33N 47°39' W 122°20'0 0.0
2014-Oct-17 12:31N 47°39' W 122°20'0 0.0
2014-Oct-17 11:33N 47°39' W 122°20'0 0.0
2014-Oct-17 11:30N 47°39' W 122°20'0 0.0
2014-Oct-17 10:34N 47°39' W 122°20'0 0.1
2014-Oct-17 10:30N 47°39' W 122°20'0 0.0
2014-Oct-17 09:32N 47°39' W 122°20'0 0.0
2014-Oct-17 09:30N 47°39' W 122°20'0 0.0
2014-Oct-17 08:32N 47°39' W 122°20'0 0.0
2014-Oct-17 08:29N 47°39' W 122°20'0 0.0
2014-Oct-17 07:11N 47°39' W 122°20'0 0.0
2014-Oct-17 07:02N 47°39' W 122°20'0 0.0
2014-Oct-17 06:34N 47°39' W 122°20'0 0.0
2014-Oct-17 06:32N 47°39' W 122°20'0 0.0
2014-Oct-17 04:33N 47°39' W 122°20'0 0.0
2014-Oct-17 04:29N 47°39' W 122°20'0 0.0
2014-Oct-17 03:33N 47°39' W 122°20'0 0.0
2014-Oct-17 03:29N 47°39' W 122°20'0 0.0
2014-Oct-17 02:33N 47°39' W 122°20'0 0.0
2014-Oct-17 02:29N 47°39' W 122°20'0 0.0
2014-Oct-17 01:33N 47°39' W 122°20'0 0.0
2014-Oct-17 01:29N 47°39' W 122°20'1 1.0
2014-Oct-17 00:33N 47°39' W 122°19'0 6.0
2014-Oct-17 00:29N 47°39' W 122°19'2 2.4
2014-Oct-16 23:33N 47°38' W 122°15'0 0.6
2014-Oct-16 23:29N 47°38' W 122°16'1 0.8
2014-Oct-16 22:33N 47°39' W 122°17'1 7.0
2014-Oct-16 22:28N 47°39' W 122°16'0 0.2
2014-Oct-16 21:33N 47°38' W 122°16'0 0.0
2014-Oct-16 21:33N 47°38' W 122°16'0 0.1
2014-Oct-16 20:33N 47°38' W 122°15'0 0.0
2014-Oct-16 20:33N 47°38' W 122°15'0 0.1
2014-Oct-16 19:33N 47°38' W 122°15'0 0.0
2014-Oct-16 19:33N 47°38' W 122°15'0 0.3
2014-Oct-16 18:33N 47°39' W 122°16'0 0.0
2014-Oct-16 18:33N 47°39' W 122°16'3 3.2
2014-Oct-16 17:33N 47°39' W 122°20'0 0.0
2014-Oct-16 17:33N 47°39' W 122°20'0 0.0
2014-Oct-16 16:33N 47°39' W 122°20'0 0.8
2014-Oct-16 16:33N 47°39' W 122°20'0 0.0
2014-Oct-16 15:33N 47°39' W 122°20'0 0.9
2014-Oct-16 15:33N 47°39' W 122°20'0 0.0
2014-Oct-16 14:33N 47°39' W 122°20'0 0.0
2014-Oct-16 14:33N 47°39' W 122°20'0 0.0
2014-Oct-16 13:33N 47°39' W 122°20'0 0.0
2014-Oct-16 13:33N 47°39' W 122°20'0 0.0
2014-Oct-16 12:33N 47°39' W 122°20'0 0.0
2014-Oct-16 12:33N 47°39' W 122°20'0 0.0
2014-Oct-16 11:33N 47°39' W 122°20'0 0.0
2014-Oct-16 11:28N 47°39' W 122°20'0 0.0
2014-Oct-16 10:33N 47°39' W 122°20'0 0.0
2014-Oct-16 10:32N 47°39' W 122°20'0 0.0
2014-Oct-16 09:33N 47°39' W 122°20'0 0.0
2014-Oct-16 09:32N 47°39' W 122°20'0 0.0
2014-Oct-16 08:32N 47°39' W 122°20'0 0.0
2014-Oct-16 08:32N 47°39' W 122°20'0 0.0
2014-Oct-16 07:34N 47°39' W 122°20'0 0.5
2014-Oct-16 07:32N 47°39' W 122°20'4 3.7
2014-Oct-16 06:33N 47°38' W 122°15'0 0.3
2014-Oct-16 06:32N 47°38' W 122°15'6 6.7
2014-Oct-16 05:36N 47°45' W 122°16'0 8.2
2014-Oct-16 05:33N 47°45' W 122°16'6 5.8
2014-Oct-16 04:34N 47°39' W 122°15'0 9.3
2014-Oct-16 04:32N 47°39' W 122°15'3 3.0
2014-Oct-16 03:30N 47°39' W 122°19'0 2.6
2014-Oct-16 03:26N 47°39' W 122°20'3 3.4
2014-Oct-16 02:33N 47°40' W 122°24'0 0.0
2014-Oct-16 02:32N 47°40' W 122°24'4 4.3
2014-Oct-16 01:34N 47°36' W 122°27'0 9.3
2014-Oct-16 01:31N 47°36' W 122°27'9 9.5
2014-Oct-16 00:33N 47°27' W 122°31'3 9.8
2014-Oct-16 00:16N 47°24' W 122°32'6 8.2
2014-Oct-15 23:33N 47°19' W 122°29'4 4.1
2014-Oct-15 22:34N 47°16' W 122°24'7 7.1
2014-Oct-15 21:34N 47°23' W 122°22'4 9.3
2014-Oct-15 21:06N 47°27' W 122°25'4 7.9
2014-Oct-15 20:34N 47°31' W 122°26'0 7.6
2014-Oct-15 20:31N 47°32' W 122°26'5 4.7
2014-Oct-15 19:33N 47°34' W 122°21'0 0.2
2014-Oct-15 19:31N 47°34' W 122°21'0 0.0
2014-Oct-13 21:20N 47°34' W 122°21'0 0.0
2014-Oct-13 21:20N 47°34' W 122°21'0 0.0
2014-Oct-13 20:34N 47°34' W 122°21'0 0.0
2014-Oct-13 20:31N 47°34' W 122°21'  
Track history (hours):
 
Tides and Currents Weather Stations Pressure Air Temp Water Temp Dewpoint Dewpoint Depression Visibility Wind Speed Wind Dir Waves Ship Positions

Solana

Owner: TAURUS MARINE, SAN FRANCISCO, CA. More information available from US FCC via Universal Licensing System and Coast Guard Vessel Documentation Center.

Last reported at 2014-Oct-21 12:33 UTC. Time now 2014-Oct-21 13:36 UTC.
Position N 47°32' W 122°25'.

Type: Towing. MMSI: 366969740.

Date/timePositionNaut miles runAvg speedWind from/ knotsBaromVisibWave heightAir tempDewpointWater temp
2014-Oct-21 12:33N 47°32' W 122°25'10 9.9
2014-Oct-21 11:33N 47°23' W 122°22'1 9.8
2014-Oct-21 11:25N 47°21' W 122°23'5 5.6
2014-Oct-21 10:27N 47°16' W 122°24'3 3.3
2014-Oct-21 09:33N 47°18' W 122°27'2 7.6
2014-Oct-21 09:20N 47°19' W 122°29'5 6.6
2014-Oct-21 08:33N 47°24' W 122°32'4 7.4
2014-Oct-21 08:00N 47°28' W 122°31'3 7.4
2014-Oct-21 07:33N 47°31' W 122°29'0 7.3
2014-Oct-21 07:30N 47°31' W 122°29'7 7.5
2014-Oct-21 06:33N 47°38' W 122°28'0 7.1
2014-Oct-21 06:30N 47°39' W 122°28'3 5.5
2014-Oct-21 05:55N 47°40' W 122°24'0 0.9
2014-Oct-21 05:33N 47°40' W 122°23'5 5.1
2014-Oct-21 04:33N 47°39' W 122°16'0 2.6
2014-Oct-21 04:25N 47°39' W 122°17'3 3.1
2014-Oct-21 03:33N 47°39' W 122°20'0 0.0
2014-Oct-21 03:29N 47°39' W 122°20'0 0.0
2014-Oct-21 02:33N 47°39' W 122°20'0 0.0
2014-Oct-21 02:29N 47°39' W 122°20'0 0.0
2014-Oct-21 01:33N 47°39' W 122°20'0 0.1
2014-Oct-21 01:30N 47°39' W 122°20'0 0.0
2014-Oct-21 00:33N 47°39' W 122°20'0 0.0
2014-Oct-21 00:30N 47°39' W 122°20'0 0.0
2014-Oct-20 23:32N 47°39' W 122°20'0 0.0
2014-Oct-20 23:29N 47°39' W 122°20'0 0.0
2014-Oct-20 22:07N 47°39' W 122°20'0 0.0
2014-Oct-20 22:05N 47°39' W 122°20'0 0.0
2014-Oct-20 21:15N 47°39' W 122°20'0 0.0
2014-Oct-20 21:05N 47°39' W 122°20'0 0.0
2014-Oct-20 20:29N 47°39' W 122°20'0 0.0
2014-Oct-20 19:49N 47°39' W 122°20'0 0.0
2014-Oct-20 19:33N 47°39' W 122°20'0 0.1
2014-Oct-20 19:29N 47°39' W 122°20'0 0.0
2014-Oct-20 18:33N 47°39' W 122°20'0 0.0
2014-Oct-20 18:29N 47°39' W 122°20'0 0.0
2014-Oct-20 17:33N 47°39' W 122°20'0 0.0
2014-Oct-20 16:33N 47°39' W 122°20'0 0.0
2014-Oct-20 15:33N 47°39' W 122°20'0 0.0
2014-Oct-20 14:33N 47°39' W 122°20'0 0.0
2014-Oct-20 13:33N 47°39' W 122°20'0 0.0
2014-Oct-20 12:33N 47°39' W 122°20'0 0.0
2014-Oct-20 11:33N 47°39' W 122°20'0 0.0
2014-Oct-20 10:33N 47°39' W 122°20'0 0.0
2014-Oct-20 09:33N 47°39' W 122°20'0 0.0
2014-Oct-20 08:33N 47°39' W 122°20'0 0.0
2014-Oct-20 07:28N 47°39' W 122°20'0 0.0
2014-Oct-20 06:43N 47°39' W 122°20'0 0.0
2014-Oct-20 06:28N 47°39' W 122°20'0 0.0
2014-Oct-20 06:28N 47°39' W 122°20'0 0.0
2014-Oct-20 05:58N 47°39' W 122°20'0 0.0
2014-Oct-20 05:33N 47°39' W 122°20'0 0.0
2014-Oct-20 04:33N 47°39' W 122°20'0 0.0
2014-Oct-20 04:33N 47°39' W 122°20'0 0.0
2014-Oct-20 03:33N 47°39' W 122°20'0 0.0
2014-Oct-20 03:33N 47°39' W 122°20'0 0.0
2014-Oct-20 02:33N 47°39' W 122°20'0 0.0
2014-Oct-20 02:33N 47°39' W 122°20'0 0.0
2014-Oct-20 01:33N 47°39' W 122°20'0 0.0
2014-Oct-20 01:33N 47°39' W 122°20'0 0.0
2014-Oct-20 00:33N 47°39' W 122°20'0 0.0
2014-Oct-20 00:33N 47°39' W 122°20'0 0.0
2014-Oct-19 23:33N 47°39' W 122°20'0 0.0
2014-Oct-19 23:33N 47°39' W 122°20'0 0.0
2014-Oct-19 22:33N 47°39' W 122°20'0 0.0
2014-Oct-19 22:33N 47°39' W 122°20'0 0.0
2014-Oct-19 21:34N 47°39' W 122°20'0 0.0
2014-Oct-19 21:33N 47°39' W 122°20'0 0.0
2014-Oct-19 20:33N 47°39' W 122°20'0 0.0
2014-Oct-19 20:32N 47°39' W 122°20'0 0.0
2014-Oct-19 19:33N 47°39' W 122°20'0 0.0
2014-Oct-19 19:30N 47°39' W 122°20'0 0.0
2014-Oct-19 18:33N 47°39' W 122°20'0 0.0
2014-Oct-19 18:29N 47°39' W 122°20'0 0.0
2014-Oct-19 17:18N 47°39' W 122°20'0 0.0
2014-Oct-19 17:18N 47°39' W 122°20'0 0.0
2014-Oct-19 16:31N 47°39' W 122°20'0 0.0
2014-Oct-19 16:31N 47°39' W 122°20'0 0.0
2014-Oct-19 15:33N 47°39' W 122°20'0 0.0
2014-Oct-19 15:31N 47°39' W 122°20'0 0.0
2014-Oct-19 14:33N 47°39' W 122°20'0 0.0
2014-Oct-19 14:31N 47°39' W 122°20'0 0.0
2014-Oct-19 13:33N 47°39' W 122°20'0 0.2
2014-Oct-19 13:31N 47°39' W 122°20'0 0.0
2014-Oct-19 12:33N 47°39' W 122°20'0 0.0
2014-Oct-19 12:31N 47°39' W 122°20'0 0.0
2014-Oct-19 11:33N 47°39' W 122°20'0 0.0
2014-Oct-19 11:31N 47°39' W 122°20'0 0.0
2014-Oct-19 10:33N 47°39' W 122°20'0 0.0
2014-Oct-19 10:31N 47°39' W 122°20'0 0.0
2014-Oct-19 09:33N 47°39' W 122°20'0 0.0
2014-Oct-19 09:31N 47°39' W 122°20'0 0.0
2014-Oct-19 08:33N 47°39' W 122°20'0 0.0
2014-Oct-19 08:31N 47°39' W 122°20'0 0.0
2014-Oct-19 07:33N 47°39' W 122°20'0 0.0
2014-Oct-19 07:31N 47°39' W 122°20'0 0.0
2014-Oct-19 06:33N 47°39' W 122°20'0 0.0
2014-Oct-19 06:30N 47°39' W 122°20'0 0.0
2014-Oct-19 06:00N 47°39' W 122°20'0 0.0
2014-Oct-19 05:33N 47°39' W 122°20'0 0.0
2014-Oct-19 04:33N 47°39' W 122°20'0 0.0
2014-Oct-19 04:30N 47°39' W 122°20'0 0.0
2014-Oct-19 03:33N 47°39' W 122°20'0 0.0
2014-Oct-19 03:30N 47°39' W 122°20'0 0.0
2014-Oct-19 02:33N 47°39' W 122°20'0 0.1
2014-Oct-19 02:30N 47°39' W 122°20'0 0.0
2014-Oct-19 01:33N 47°39' W 122°20'0 0.0
2014-Oct-19 01:30N 47°39' W 122°20'0 0.0
2014-Oct-19 00:33N 47°39' W 122°20'0 0.0
2014-Oct-19 00:29N 47°39' W 122°20'0 0.0
2014-Oct-18 23:33N 47°39' W 122°20'0 0.0
2014-Oct-18 23:30N 47°39' W 122°20'0 0.0
2014-Oct-18 22:33N 47°39' W 122°20'0 0.0
2014-Oct-18 22:29N 47°39' W 122°20'0 0.0
2014-Oct-18 21:33N 47°39' W 122°20'0 0.1
2014-Oct-18 21:29N 47°39' W 122°20'0 0.0
2014-Oct-18 20:33N 47°39' W 122°20'0 0.0
2014-Oct-18 20:29N 47°39' W 122°20'0 0.0
2014-Oct-18 19:33N 47°39' W 122°20'0 0.0
2014-Oct-18 19:29N 47°39' W 122°20'0 0.0
2014-Oct-18 18:33N 47°39' W 122°20'0 0.0
2014-Oct-18 18:28N 47°39' W 122°20'2 1.6
2014-Oct-18 17:25N 47°39' W 122°18'1 5.9
2014-Oct-18 17:19N 47°39' W 122°17'1 1.4
2014-Oct-18 16:33N 47°38' W 122°15'0 2.1
2014-Oct-18 16:19N 47°38' W 122°15'5 6.5
2014-Oct-18 15:33N 47°43' W 122°16'2 4.4
2014-Oct-18 15:03N 47°45' W 122°15'2 4.7
2014-Oct-18 14:33N 47°43' W 122°16'1 9.4
2014-Oct-18 14:29N 47°42' W 122°16'5 5.1
2014-Oct-18 13:33N 47°39' W 122°20'0 0.0
2014-Oct-18 13:33N 47°39' W 122°20'0 0.3
2014-Oct-18 12:34N 47°39' W 122°20'0 0.0
2014-Oct-18 12:34N 47°39' W 122°20'0 0.0
2014-Oct-18 11:34N 47°39' W 122°20'0 0.0
2014-Oct-18 11:33N 47°39' W 122°20'0 0.0
2014-Oct-18 10:23N 47°39' W 122°20'0 0.0
2014-Oct-18 10:22N 47°39' W 122°20'0 0.0
2014-Oct-18 09:33N 47°39' W 122°20'0 0.0
2014-Oct-18 09:33N 47°39' W 122°20'0 0.0
2014-Oct-18 08:33N 47°39' W 122°20'0 0.0
2014-Oct-18 08:32N 47°39' W 122°20'0 0.0
2014-Oct-18 07:33N 47°39' W 122°20'0 0.0
2014-Oct-18 07:32N 47°39' W 122°20'0 0.0
2014-Oct-18 06:33N 47°39' W 122°20'0 0.0
2014-Oct-18 06:32N 47°39' W 122°20'0 0.0
2014-Oct-18 05:57N 47°39' W 122°20'0 0.0
2014-Oct-18 05:34N 47°39' W 122°20'0 0.0
2014-Oct-18 04:34N 47°39' W 122°20'0 0.0
2014-Oct-18 04:32N 47°39' W 122°20'0 0.0
2014-Oct-18 03:34N 47°39' W 122°20'0 0.0
2014-Oct-18 03:32N 47°39' W 122°20'0 0.0
2014-Oct-18 02:33N 47°39' W 122°20'0 0.0
2014-Oct-18 02:32N 47°39' W 122°20'0 0.0
2014-Oct-18 01:33N 47°39' W 122°20'0 0.0
2014-Oct-18 01:32N 47°39' W 122°20'0 0.0
2014-Oct-18 00:33N 47°39' W 122°20'0 0.0
2014-Oct-18 00:32N 47°39' W 122°20'0 0.0
2014-Oct-17 23:32N 47°39' W 122°20'0 0.0
2014-Oct-17 23:32N 47°39' W 122°20'0 0.0
2014-Oct-17 22:33N 47°39' W 122°20'0 0.0
2014-Oct-17 22:31N 47°39' W 122°20'0 0.0
2014-Oct-17 21:33N 47°39' W 122°20'0 0.0
2014-Oct-17 21:31N 47°39' W 122°20'0 0.0
2014-Oct-17 20:33N 47°39' W 122°20'0 0.0
2014-Oct-17 20:31N 47°39' W 122°20'0 0.0
2014-Oct-17 19:33N 47°39' W 122°20'0 0.2
2014-Oct-17 19:31N 47°39' W 122°20'0 0.0
2014-Oct-17 18:34N 47°39' W 122°20'0 0.0
2014-Oct-17 18:31N 47°39' W 122°20'0 0.0
2014-Oct-17 17:34N 47°39' W 122°20'0 0.0
2014-Oct-17 17:31N 47°39' W 122°20'0 0.0
2014-Oct-17 16:34N 47°39' W 122°20'0 0.0
2014-Oct-17 16:31N 47°39' W 122°20'0 0.0
2014-Oct-17 15:33N 47°39' W 122°20'0 0.2
2014-Oct-17 15:31N 47°39' W 122°20'0 0.0
2014-Oct-17 14:33N 47°39' W 122°20'0 0.0
2014-Oct-17 14:31N 47°39' W 122°20'0 0.0
2014-Oct-17 13:33N 47°39' W 122°20'0 0.0
2014-Oct-17 13:31N 47°39' W 122°20'0 0.0
2014-Oct-17 12:33N 47°39' W 122°20'0 0.0
2014-Oct-17 12:31N 47°39' W 122°20'0 0.0
2014-Oct-17 11:33N 47°39' W 122°20'0 0.0
2014-Oct-17 11:30N 47°39' W 122°20'0 0.0
2014-Oct-17 10:34N 47°39' W 122°20'0 0.1
2014-Oct-17 10:30N 47°39' W 122°20'0 0.0
2014-Oct-17 09:32N 47°39' W 122°20'0 0.0
2014-Oct-17 09:30N 47°39' W 122°20'0 0.0
2014-Oct-17 08:32N 47°39' W 122°20'0 0.0
2014-Oct-17 08:29N 47°39' W 122°20'0 0.0
2014-Oct-17 07:11N 47°39' W 122°20'0 0.0
2014-Oct-17 07:02N 47°39' W 122°20'0 0.0
2014-Oct-17 06:34N 47°39' W 122°20'0 0.0
2014-Oct-17 06:32N 47°39' W 122°20'0 0.0
2014-Oct-17 04:33N 47°39' W 122°20'0 0.0
2014-Oct-17 04:29N 47°39' W 122°20'0 0.0
2014-Oct-17 03:33N 47°39' W 122°20'0 0.0
2014-Oct-17 03:29N 47°39' W 122°20'0 0.0
2014-Oct-17 02:33N 47°39' W 122°20'0 0.0
2014-Oct-17 02:29N 47°39' W 122°20'0 0.0
2014-Oct-17 01:33N 47°39' W 122°20'0 0.0
2014-Oct-17 01:29N 47°39' W 122°20'1 1.0
2014-Oct-17 00:33N 47°39' W 122°19'0 6.0
2014-Oct-17 00:29N 47°39' W 122°19'2 2.4
2014-Oct-16 23:33N 47°38' W 122°15'0 0.6
2014-Oct-16 23:29N 47°38' W 122°16'1 0.8
2014-Oct-16 22:33N 47°39' W 122°17'1 7.0
2014-Oct-16 22:28N 47°39' W 122°16'0 0.2
2014-Oct-16 21:33N 47°38' W 122°16'0 0.0
2014-Oct-16 21:33N 47°38' W 122°16'0 0.1
2014-Oct-16 20:33N 47°38' W 122°15'0 0.0
2014-Oct-16 20:33N 47°38' W 122°15'0 0.1
2014-Oct-16 19:33N 47°38' W 122°15'0 0.0
2014-Oct-16 19:33N 47°38' W 122°15'0 0.3
2014-Oct-16 18:33N 47°39' W 122°16'0 0.0
2014-Oct-16 18:33N 47°39' W 122°16'3 3.2
2014-Oct-16 17:33N 47°39' W 122°20'0 0.0
2014-Oct-16 17:33N 47°39' W 122°20'0 0.0
2014-Oct-16 16:33N 47°39' W 122°20'0 0.8
2014-Oct-16 16:33N 47°39' W 122°20'0 0.0
2014-Oct-16 15:33N 47°39' W 122°20'0 0.9
2014-Oct-16 15:33N 47°39' W 122°20'0 0.0
2014-Oct-16 14:33N 47°39' W 122°20'0 0.0
2014-Oct-16 14:33N 47°39' W 122°20'0 0.0
2014-Oct-16 13:33N 47°39' W 122°20'0 0.0
2014-Oct-16 13:33N 47°39' W 122°20'0 0.0
2014-Oct-16 12:33N 47°39' W 122°20'0 0.0
2014-Oct-16 12:33N 47°39' W 122°20'0 0.0
2014-Oct-16 11:33N 47°39' W 122°20'0 0.0
2014-Oct-16 11:28N 47°39' W 122°20'0 0.0
2014-Oct-16 10:33N 47°39' W 122°20'0 0.0
2014-Oct-16 10:32N 47°39' W 122°20'0 0.0
2014-Oct-16 09:33N 47°39' W 122°20'0 0.0
2014-Oct-16 09:32N 47°39' W 122°20'0 0.0
2014-Oct-16 08:32N 47°39' W 122°20'0 0.0
2014-Oct-16 08:32N 47°39' W 122°20'0 0.0
2014-Oct-16 07:34N 47°39' W 122°20'0 0.5
2014-Oct-16 07:32N 47°39' W 122°20'4 3.7
2014-Oct-16 06:33N 47°38' W 122°15'0 0.3
2014-Oct-16 06:32N 47°38' W 122°15'6 6.7
2014-Oct-16 05:36N 47°45' W 122°16'0 8.2
2014-Oct-16 05:33N 47°45' W 122°16'6 5.8
2014-Oct-16 04:34N 47°39' W 122°15'0 9.3
2014-Oct-16 04:32N 47°39' W 122°15'3 3.0
2014-Oct-16 03:30N 47°39' W 122°19'0 2.6
2014-Oct-16 03:26N 47°39' W 122°20'3 3.4
2014-Oct-16 02:33N 47°40' W 122°24'0 0.0
2014-Oct-16 02:32N 47°40' W 122°24'4 4.3
2014-Oct-16 01:34N 47°36' W 122°27'0 9.3
2014-Oct-16 01:31N 47°36' W 122°27'9 9.5
2014-Oct-16 00:33N 47°27' W 122°31'3 9.8
2014-Oct-16 00:16N 47°24' W 122°32'6 8.2
2014-Oct-15 23:33N 47°19' W 122°29'4 4.1
2014-Oct-15 22:34N 47°16' W 122°24'7 7.1
2014-Oct-15 21:34N 47°23' W 122°22'4 9.3
2014-Oct-15 21:06N 47°27' W 122°25'4 7.9
2014-Oct-15 20:34N 47°31' W 122°26'0 7.6
2014-Oct-15 20:31N 47°32' W 122°26'5 4.7
2014-Oct-15 19:33N 47°34' W 122°21'0 0.2
2014-Oct-15 19:31N 47°34' W 122°21'0 0.0
2014-Oct-13 21:20N 47°34' W 122°21'0 0.0
2014-Oct-13 21:20N 47°34' W 122°21'0 0.0
2014-Oct-13 20:34N 47°34' W 122°21'0 0.0
2014-Oct-13 20:31N 47°34' W 122°21'  

Dump ship's entire track history